sensor_id;sensor_type;location;lat;lon;timestamp;temperature;humidity
36856;DHT22;22788;51.434;6.786;2023-07-09T00:00:21;26.10;90.90
36856;DHT22;22788;51.434;6.786;2023-07-09T00:02:48;26.10;90.90
36856;DHT22;22788;51.434;6.786;2023-07-09T00:05:15;26.00;90.70
36856;DHT22;22788;51.434;6.786;2023-07-09T00:07:42;26.10;90.90
36856;DHT22;22788;51.434;6.786;2023-07-09T00:10:16;26.00;90.80
36856;DHT22;22788;51.434;6.786;2023-07-09T00:12:42;26.00;90.90
36856;DHT22;22788;51.434;6.786;2023-07-09T00:15:09;26.00;90.90
36856;DHT22;22788;51.434;6.786;2023-07-09T00:17:35;26.00;90.90
36856;DHT22;22788;51.434;6.786;2023-07-09T00:20:02;26.00;91.00
36856;DHT22;22788;51.434;6.786;2023-07-09T00:22:28;26.00;90.40
36856;DHT22;22788;51.434;6.786;2023-07-09T00:24:53;25.90;91.00
36856;DHT22;22788;51.434;6.786;2023-07-09T00:27:22;25.90;91.00
36856;DHT22;22788;51.434;6.786;2023-07-09T00:29:49;25.90;91.00
36856;DHT22;22788;51.434;6.786;2023-07-09T00:32:16;25.90;91.10
36856;DHT22;22788;51.434;6.786;2023-07-09T00:34:42;25.90;91.00
36856;DHT22;22788;51.434;6.786;2023-07-09T00:37:10;25.90;91.10
36856;DHT22;22788;51.434;6.786;2023-07-09T00:39:36;25.90;91.00
36856;DHT22;22788;51.434;6.786;2023-07-09T00:42:02;25.90;91.10
36856;DHT22;22788;51.434;6.786;2023-07-09T00:44:31;25.80;91.10
36856;DHT22;22788;51.434;6.786;2023-07-09T00:47:18;25.80;91.10
36856;DHT22;22788;51.434;6.786;2023-07-09T00:49:44;25.80;91.20
36856;DHT22;22788;51.434;6.786;2023-07-09T00:52:21;25.80;91.20
36856;DHT22;22788;51.434;6.786;2023-07-09T00:54:49;25.80;90.80
36856;DHT22;22788;51.434;6.786;2023-07-09T00:57:18;25.70;90.80
36856;DHT22;22788;51.434;6.786;2023-07-09T00:59:48;25.80;91.20
36856;DHT22;22788;51.434;6.786;2023-07-09T01:02:15;25.80;91.30
36856;DHT22;22788;51.434;6.786;2023-07-09T01:04:41;25.80;91.30
36856;DHT22;22788;51.434;6.786;2023-07-09T01:07:07;25.70;91.30
36856;DHT22;22788;51.434;6.786;2023-07-09T01:09:33;25.70;91.20
36856;DHT22;22788;51.434;6.786;2023-07-09T01:11:59;25.70;91.30
36856;DHT22;22788;51.434;6.786;2023-07-09T01:14:25;25.70;91.30
36856;DHT22;22788;51.434;6.786;2023-07-09T01:16:56;25.70;91.30
36856;DHT22;22788;51.434;6.786;2023-07-09T01:19:24;25.70;91.20
36856;DHT22;22788;51.434;6.786;2023-07-09T01:21:53;25.70;91.30
36856;DHT22;22788;51.434;6.786;2023-07-09T01:24:51;25.60;91.30
36856;DHT22;22788;51.434;6.786;2023-07-09T01:27:19;25.60;91.30
36856;DHT22;22788;51.434;6.786;2023-07-09T01:29:45;25.60;91.30
36856;DHT22;22788;51.434;6.786;2023-07-09T01:32:13;25.60;91.30
36856;DHT22;22788;51.434;6.786;2023-07-09T01:34:39;25.60;91.40
36856;DHT22;22788;51.434;6.786;2023-07-09T01:37:06;25.60;91.40
36856;DHT22;22788;51.434;6.786;2023-07-09T01:39:31;25.60;91.30
36856;DHT22;22788;51.434;6.786;2023-07-09T01:41:57;25.60;91.40
36856;DHT22;22788;51.434;6.786;2023-07-09T01:44:22;25.60;91.40
36856;DHT22;22788;51.434;6.786;2023-07-09T01:46:48;25.60;91.40
36856;DHT22;22788;51.434;6.786;2023-07-09T01:49:14;25.60;91.40
36856;DHT22;22788;51.434;6.786;2023-07-09T01:51:39;25.50;91.40
36856;DHT22;22788;51.434;6.786;2023-07-09T01:54:07;25.50;91.50
36856;DHT22;22788;51.434;6.786;2023-07-09T01:56:32;25.50;91.50
36856;DHT22;22788;51.434;6.786;2023-07-09T01:58:58;25.50;91.40
36856;DHT22;22788;51.434;6.786;2023-07-09T02:01:24;25.40;91.40
36856;DHT22;22788;51.434;6.786;2023-07-09T02:03:49;25.40;91.50
36856;DHT22;22788;51.434;6.786;2023-07-09T02:06:15;25.40;91.60
36856;DHT22;22788;51.434;6.786;2023-07-09T02:08:40;25.40;91.60
36856;DHT22;22788;51.434;6.786;2023-07-09T02:11:07;25.40;91.60
36856;DHT22;22788;51.434;6.786;2023-07-09T02:13:33;25.40;91.50
36856;DHT22;22788;51.434;6.786;2023-07-09T02:15:58;25.40;91.60
36856;DHT22;22788;51.434;6.786;2023-07-09T02:18:25;25.30;91.60
36856;DHT22;22788;51.434;6.786;2023-07-09T02:20:51;25.30;91.70
36856;DHT22;22788;51.434;6.786;2023-07-09T02:23:17;25.30;91.60
36856;DHT22;22788;51.434;6.786;2023-07-09T02:25:42;25.30;91.70
36856;DHT22;22788;51.434;6.786;2023-07-09T02:28:09;25.30;92.00
36856;DHT22;22788;51.434;6.786;2023-07-09T02:30:35;25.30;91.70
36856;DHT22;22788;51.434;6.786;2023-07-09T02:33:00;25.20;91.80
36856;DHT22;22788;51.434;6.786;2023-07-09T02:35:26;25.20;91.80
36856;DHT22;22788;51.434;6.786;2023-07-09T02:37:52;25.20;91.90
36856;DHT22;22788;51.434;6.786;2023-07-09T02:40:17;25.20;91.90
36856;DHT22;22788;51.434;6.786;2023-07-09T02:42:43;25.20;91.90
36856;DHT22;22788;51.434;6.786;2023-07-09T02:45:10;25.20;91.90
36856;DHT22;22788;51.434;6.786;2023-07-09T02:47:36;25.20;91.90
36856;DHT22;22788;51.434;6.786;2023-07-09T02:50:02;25.20;91.90
36856;DHT22;22788;51.434;6.786;2023-07-09T02:52:27;25.20;91.90
36856;DHT22;22788;51.434;6.786;2023-07-09T02:54:53;25.20;91.90
36856;DHT22;22788;51.434;6.786;2023-07-09T02:57:19;25.20;91.90
36856;DHT22;22788;51.434;6.786;2023-07-09T02:59:44;25.20;91.90
36856;DHT22;22788;51.434;6.786;2023-07-09T03:02:11;25.20;91.90
36856;DHT22;22788;51.434;6.786;2023-07-09T03:04:37;25.10;91.90
36856;DHT22;22788;51.434;6.786;2023-07-09T03:07:03;25.10;92.00
36856;DHT22;22788;51.434;6.786;2023-07-09T03:09:29;25.10;92.00
36856;DHT22;22788;51.434;6.786;2023-07-09T03:11:55;25.10;92.00
36856;DHT22;22788;51.434;6.786;2023-07-09T03:14:21;25.10;92.00
36856;DHT22;22788;51.434;6.786;2023-07-09T03:16:46;25.10;92.10
36856;DHT22;22788;51.434;6.786;2023-07-09T03:19:13;25.10;92.00
36856;DHT22;22788;51.434;6.786;2023-07-09T03:21:39;25.10;92.10
36856;DHT22;22788;51.434;6.786;2023-07-09T03:24:05;25.10;92.10
36856;DHT22;22788;51.434;6.786;2023-07-09T03:26:31;25.10;92.10
36856;DHT22;22788;51.434;6.786;2023-07-09T03:28:56;25.00;92.10
36856;DHT22;22788;51.434;6.786;2023-07-09T03:31:22;25.00;92.10
36856;DHT22;22788;51.434;6.786;2023-07-09T03:33:48;25.00;92.20
36856;DHT22;22788;51.434;6.786;2023-07-09T03:36:15;25.00;92.20
36856;DHT22;22788;51.434;6.786;2023-07-09T03:38:41;25.00;92.20
36856;DHT22;22788;51.434;6.786;2023-07-09T03:41:07;25.00;92.20
36856;DHT22;22788;51.434;6.786;2023-07-09T03:43:32;25.00;92.20
36856;DHT22;22788;51.434;6.786;2023-07-09T03:45:58;25.00;92.40
36856;DHT22;22788;51.434;6.786;2023-07-09T03:48:24;25.00;92.20
36856;DHT22;22788;51.434;6.786;2023-07-09T03:50:49;24.90;92.20
36856;DHT22;22788;51.434;6.786;2023-07-09T03:53:17;24.90;92.20
36856;DHT22;22788;51.434;6.786;2023-07-09T03:55:42;24.90;92.30
36856;DHT22;22788;51.434;6.786;2023-07-09T03:58:09;24.90;92.30
36856;DHT22;22788;51.434;6.786;2023-07-09T04:00:34;24.90;92.30
36856;DHT22;22788;51.434;6.786;2023-07-09T04:03:00;24.90;92.30
36856;DHT22;22788;51.434;6.786;2023-07-09T04:05:27;24.80;92.30
36856;DHT22;22788;51.434;6.786;2023-07-09T04:07:53;24.90;92.40
36856;DHT22;22788;51.434;6.786;2023-07-09T04:10:20;24.80;92.40
36856;DHT22;22788;51.434;6.786;2023-07-09T04:12:46;24.80;92.40
36856;DHT22;22788;51.434;6.786;2023-07-09T04:15:12;24.80;92.50
36856;DHT22;22788;51.434;6.786;2023-07-09T04:17:38;24.80;92.40
36856;DHT22;22788;51.434;6.786;2023-07-09T04:20:05;24.80;92.40
36856;DHT22;22788;51.434;6.786;2023-07-09T04:22:31;24.80;92.40
36856;DHT22;22788;51.434;6.786;2023-07-09T04:24:57;24.80;92.40
36856;DHT22;22788;51.434;6.786;2023-07-09T04:27:24;24.80;92.40
36856;DHT22;22788;51.434;6.786;2023-07-09T04:29:50;24.80;92.40
36856;DHT22;22788;51.434;6.786;2023-07-09T04:32:15;24.80;92.70
36856;DHT22;22788;51.434;6.786;2023-07-09T04:34:41;24.80;92.50
36856;DHT22;22788;51.434;6.786;2023-07-09T04:37:08;24.80;92.50
36856;DHT22;22788;51.434;6.786;2023-07-09T04:39:34;24.80;92.50
36856;DHT22;22788;51.434;6.786;2023-07-09T04:42:00;24.80;92.60
36856;DHT22;22788;51.434;6.786;2023-07-09T04:44:27;24.80;92.60
36856;DHT22;22788;51.434;6.786;2023-07-09T04:46:53;24.80;92.60
36856;DHT22;22788;51.434;6.786;2023-07-09T04:49:19;24.80;92.70
36856;DHT22;22788;51.434;6.786;2023-07-09T04:51:44;24.70;92.60
36856;DHT22;22788;51.434;6.786;2023-07-09T04:54:10;24.70;92.60
36856;DHT22;22788;51.434;6.786;2023-07-09T04:56:35;24.70;92.60
36856;DHT22;22788;51.434;6.786;2023-07-09T04:59:01;24.70;92.60
36856;DHT22;22788;51.434;6.786;2023-07-09T05:01:28;24.70;92.60
36856;DHT22;22788;51.434;6.786;2023-07-09T05:03:54;24.70;92.60
36856;DHT22;22788;51.434;6.786;2023-07-09T05:06:19;24.70;92.60
36856;DHT22;22788;51.434;6.786;2023-07-09T05:08:45;24.70;92.60
36856;DHT22;22788;51.434;6.786;2023-07-09T05:11:11;24.70;92.60
36856;DHT22;22788;51.434;6.786;2023-07-09T05:13:36;24.70;92.70
36856;DHT22;22788;51.434;6.786;2023-07-09T05:16:02;24.70;92.60
36856;DHT22;22788;51.434;6.786;2023-07-09T05:18:29;24.70;92.60
36856;DHT22;22788;51.434;6.786;2023-07-09T05:20:55;24.70;92.70
36856;DHT22;22788;51.434;6.786;2023-07-09T05:23:21;24.70;92.80
36856;DHT22;22788;51.434;6.786;2023-07-09T05:25:46;24.70;92.70
36856;DHT22;22788;51.434;6.786;2023-07-09T05:28:12;24.70;92.70
36856;DHT22;22788;51.434;6.786;2023-07-09T05:30:41;24.70;92.70
36856;DHT22;22788;51.434;6.786;2023-07-09T05:33:06;24.70;92.70
36856;DHT22;22788;51.434;6.786;2023-07-09T05:35:33;24.70;92.70
36856;DHT22;22788;51.434;6.786;2023-07-09T05:37:59;24.80;92.70
36856;DHT22;22788;51.434;6.786;2023-07-09T05:40:25;24.80;92.80
36856;DHT22;22788;51.434;6.786;2023-07-09T05:42:50;24.70;93.00
36856;DHT22;22788;51.434;6.786;2023-07-09T05:45:16;24.70;92.80
36856;DHT22;22788;51.434;6.786;2023-07-09T05:47:42;24.70;93.10
36856;DHT22;22788;51.434;6.786;2023-07-09T05:50:08;24.70;92.80
36856;DHT22;22788;51.434;6.786;2023-07-09T05:52:35;24.70;93.10
36856;DHT22;22788;51.434;6.786;2023-07-09T05:55:00;24.70;93.30
36856;DHT22;22788;51.434;6.786;2023-07-09T05:57:26;24.70;93.00
36856;DHT22;22788;51.434;6.786;2023-07-09T05:59:52;24.70;93.20
36856;DHT22;22788;51.434;6.786;2023-07-09T06:02:20;24.70;92.90
36856;DHT22;22788;51.434;6.786;2023-07-09T06:04:46;24.80;92.80
36856;DHT22;22788;51.434;6.786;2023-07-09T06:07:13;24.70;92.90
36856;DHT22;22788;51.434;6.786;2023-07-09T06:09:40;24.80;93.10
36856;DHT22;22788;51.434;6.786;2023-07-09T06:12:06;24.80;93.00
36856;DHT22;22788;51.434;6.786;2023-07-09T06:14:33;24.80;93.70
36856;DHT22;22788;51.434;6.786;2023-07-09T06:16:59;24.80;93.10
36856;DHT22;22788;51.434;6.786;2023-07-09T06:19:25;24.80;93.50
36856;DHT22;22788;51.434;6.786;2023-07-09T06:21:51;24.80;93.10
36856;DHT22;22788;51.434;6.786;2023-07-09T06:24:17;24.80;93.80
36856;DHT22;22788;51.434;6.786;2023-07-09T06:26:44;24.80;93.10
36856;DHT22;22788;51.434;6.786;2023-07-09T06:29:10;24.80;93.20
36856;DHT22;22788;51.434;6.786;2023-07-09T06:31:35;24.90;93.30
36856;DHT22;22788;51.434;6.786;2023-07-09T06:34:01;24.90;93.10
36856;DHT22;22788;51.434;6.786;2023-07-09T06:36:26;24.90;93.40
36856;DHT22;22788;51.434;6.786;2023-07-09T06:38:52;24.90;93.20
36856;DHT22;22788;51.434;6.786;2023-07-09T06:41:18;24.90;93.80
36856;DHT22;22788;51.434;6.786;2023-07-09T06:43:45;24.90;93.90
36856;DHT22;22788;51.434;6.786;2023-07-09T06:46:12;24.90;92.90
36856;DHT22;22788;51.434;6.786;2023-07-09T06:48:38;24.90;93.00
36856;DHT22;22788;51.434;6.786;2023-07-09T06:51:03;24.90;93.50
36856;DHT22;22788;51.434;6.786;2023-07-09T06:53:29;25.00;93.50
36856;DHT22;22788;51.434;6.786;2023-07-09T06:55:56;25.00;94.00
36856;DHT22;22788;51.434;6.786;2023-07-09T06:58:22;25.00;94.00
36856;DHT22;22788;51.434;6.786;2023-07-09T07:00:49;25.00;94.10
36856;DHT22;22788;51.434;6.786;2023-07-09T07:03:15;25.10;93.20
36856;DHT22;22788;51.434;6.786;2023-07-09T07:05:43;25.10;93.90
36856;DHT22;22788;51.434;6.786;2023-07-09T07:08:09;25.00;93.00
36856;DHT22;22788;51.434;6.786;2023-07-09T07:10:35;25.00;93.20
36856;DHT22;22788;51.434;6.786;2023-07-09T07:13:00;25.10;93.30
36856;DHT22;22788;51.434;6.786;2023-07-09T07:15:26;25.10;92.90
36856;DHT22;22788;51.434;6.786;2023-07-09T07:17:53;25.10;93.10
36856;DHT22;22788;51.434;6.786;2023-07-09T07:20:19;25.10;92.90
36856;DHT22;22788;51.434;6.786;2023-07-09T07:22:45;25.10;92.90
36856;DHT22;22788;51.434;6.786;2023-07-09T07:25:10;25.10;93.20
36856;DHT22;22788;51.434;6.786;2023-07-09T07:27:37;25.10;93.60
36856;DHT22;22788;51.434;6.786;2023-07-09T07:30:03;25.10;92.90
36856;DHT22;22788;51.434;6.786;2023-07-09T07:32:29;25.10;93.10
36856;DHT22;22788;51.434;6.786;2023-07-09T07:34:56;25.20;93.30
36856;DHT22;22788;51.434;6.786;2023-07-09T07:37:22;25.20;93.00
36856;DHT22;22788;51.434;6.786;2023-07-09T07:39:47;25.20;93.00
36856;DHT22;22788;51.434;6.786;2023-07-09T07:42:13;25.20;94.40
36856;DHT22;22788;51.434;6.786;2023-07-09T07:44:39;25.20;93.20
36856;DHT22;22788;51.434;6.786;2023-07-09T07:47:05;25.20;93.60
36856;DHT22;22788;51.434;6.786;2023-07-09T07:49:31;25.30;93.40
36856;DHT22;22788;51.434;6.786;2023-07-09T07:51:58;25.30;93.00
36856;DHT22;22788;51.434;6.786;2023-07-09T07:54:24;25.30;92.90
36856;DHT22;22788;51.434;6.786;2023-07-09T07:56:49;25.40;94.30
36856;DHT22;22788;51.434;6.786;2023-07-09T07:59:17;25.40;94.30
36856;DHT22;22788;51.434;6.786;2023-07-09T08:01:42;25.50;94.80
36856;DHT22;22788;51.434;6.786;2023-07-09T08:04:08;25.50;93.40
36856;DHT22;22788;51.434;6.786;2023-07-09T08:06:34;25.50;94.40
36856;DHT22;22788;51.434;6.786;2023-07-09T08:09:01;25.50;94.20
36856;DHT22;22788;51.434;6.786;2023-07-09T08:11:26;25.50;92.80
36856;DHT22;22788;51.434;6.786;2023-07-09T08:13:52;25.50;94.60
36856;DHT22;22788;51.434;6.786;2023-07-09T08:16:18;25.60;93.10
36856;DHT22;22788;51.434;6.786;2023-07-09T08:18:43;25.50;93.10
36856;DHT22;22788;51.434;6.786;2023-07-09T08:21:09;25.60;93.90
36856;DHT22;22788;51.434;6.786;2023-07-09T08:23:34;25.60;93.00
36856;DHT22;22788;51.434;6.786;2023-07-09T08:26:03;25.60;94.60
36856;DHT22;22788;51.434;6.786;2023-07-09T08:28:28;25.60;94.70
36856;DHT22;22788;51.434;6.786;2023-07-09T08:30:55;25.60;93.10
36856;DHT22;22788;51.434;6.786;2023-07-09T08:33:21;25.70;93.70
36856;DHT22;22788;51.434;6.786;2023-07-09T08:35:49;25.70;95.00
36856;DHT22;22788;51.434;6.786;2023-07-09T08:38:15;25.70;94.70
36856;DHT22;22788;51.434;6.786;2023-07-09T08:40:41;25.80;93.50
36856;DHT22;22788;51.434;6.786;2023-07-09T08:43:14;25.80;93.70
36856;DHT22;22788;51.434;6.786;2023-07-09T08:45:49;25.80;93.00
36856;DHT22;22788;51.434;6.786;2023-07-09T08:48:18;25.80;93.90
36856;DHT22;22788;51.434;6.786;2023-07-09T08:50:48;25.90;94.00
36856;DHT22;22788;51.434;6.786;2023-07-09T08:53:19;26.00;94.70
36856;DHT22;22788;51.434;6.786;2023-07-09T08:55:47;26.10;94.20
36856;DHT22;22788;51.434;6.786;2023-07-09T08:58:21;26.10;93.00
36856;DHT22;22788;51.434;6.786;2023-07-09T09:00:52;26.10;94.00
36856;DHT22;22788;51.434;6.786;2023-07-09T09:03:28;26.20;93.40
36856;DHT22;22788;51.434;6.786;2023-07-09T09:05:55;26.20;93.80
36856;DHT22;22788;51.434;6.786;2023-07-09T09:08:34;26.10;92.70
36856;DHT22;22788;51.434;6.786;2023-07-09T09:11:10;26.10;94.00
36856;DHT22;22788;51.434;6.786;2023-07-09T09:13:39;26.20;93.90
36856;DHT22;22788;51.434;6.786;2023-07-09T09:16:11;26.20;92.60
36856;DHT22;22788;51.434;6.786;2023-07-09T09:18:41;26.20;93.10
36856;DHT22;22788;51.434;6.786;2023-07-09T09:21:13;26.30;92.90
36856;DHT22;22788;51.434;6.786;2023-07-09T09:23:43;26.40;93.00
36856;DHT22;22788;51.434;6.786;2023-07-09T09:26:17;26.40;93.20
36856;DHT22;22788;51.434;6.786;2023-07-09T09:28:44;26.30;92.70
36856;DHT22;22788;51.434;6.786;2023-07-09T09:31:11;26.20;92.60
36856;DHT22;22788;51.434;6.786;2023-07-09T09:33:40;26.20;93.60
36856;DHT22;22788;51.434;6.786;2023-07-09T09:36:05;26.20;92.70
36856;DHT22;22788;51.434;6.786;2023-07-09T09:38:35;26.30;92.90
36856;DHT22;22788;51.434;6.786;2023-07-09T09:41:01;26.40;92.70
36856;DHT22;22788;51.434;6.786;2023-07-09T09:43:32;26.20;93.20
36856;DHT22;22788;51.434;6.786;2023-07-09T09:46:05;26.50;91.70
36856;DHT22;22788;51.434;6.786;2023-07-09T09:48:32;26.70;91.90
36856;DHT22;22788;51.434;6.786;2023-07-09T09:50:58;26.70;92.10
36856;DHT22;22788;51.434;6.786;2023-07-09T09:53:25;26.60;92.30
36856;DHT22;22788;51.434;6.786;2023-07-09T09:55:52;26.60;92.30
36856;DHT22;22788;51.434;6.786;2023-07-09T09:58:18;26.50;92.30
36856;DHT22;22788;51.434;6.786;2023-07-09T10:00:49;26.50;91.90
36856;DHT22;22788;51.434;6.786;2023-07-09T10:03:16;26.70;92.50
36856;DHT22;22788;51.434;6.786;2023-07-09T10:05:44;26.80;91.90
36856;DHT22;22788;51.434;6.786;2023-07-09T10:08:20;26.90;91.70
36856;DHT22;22788;51.434;6.786;2023-07-09T10:10:50;26.90;91.10
36856;DHT22;22788;51.434;6.786;2023-07-09T10:13:22;26.90;91.70
36856;DHT22;22788;51.434;6.786;2023-07-09T10:16:01;27.00;91.60
36856;DHT22;22788;51.434;6.786;2023-07-09T10:18:36;27.10;91.00
36856;DHT22;22788;51.434;6.786;2023-07-09T10:21:08;27.30;90.80
36856;DHT22;22788;51.434;6.786;2023-07-09T10:23:39;27.30;91.20
36856;DHT22;22788;51.434;6.786;2023-07-09T10:26:11;27.30;91.40
36856;DHT22;22788;51.434;6.786;2023-07-09T10:28:56;27.40;90.70
36856;DHT22;22788;51.434;6.786;2023-07-09T10:31:30;27.50;91.20
36856;DHT22;22788;51.434;6.786;2023-07-09T10:34:12;27.40;91.10
36856;DHT22;22788;51.434;6.786;2023-07-09T10:36:50;27.60;90.80
36856;DHT22;22788;51.434;6.786;2023-07-09T10:39:26;27.60;91.10
36856;DHT22;22788;51.434;6.786;2023-07-09T10:41:57;27.70;91.20
36856;DHT22;22788;51.434;6.786;2023-07-09T10:44:29;27.80;90.80
36856;DHT22;22788;51.434;6.786;2023-07-09T10:46:59;27.90;91.00
36856;DHT22;22788;51.434;6.786;2023-07-09T10:49:31;27.90;90.80
36856;DHT22;22788;51.434;6.786;2023-07-09T10:52:05;27.90;90.40
36856;DHT22;22788;51.434;6.786;2023-07-09T10:54:34;27.90;90.70
36856;DHT22;22788;51.434;6.786;2023-07-09T10:57:08;28.00;90.10
36856;DHT22;22788;51.434;6.786;2023-07-09T10:59:36;28.20;87.50
36856;DHT22;22788;51.434;6.786;2023-07-09T11:02:16;28.50;86.60
36856;DHT22;22788;51.434;6.786;2023-07-09T11:04:48;28.80;86.50
36856;DHT22;22788;51.434;6.786;2023-07-09T11:07:24;28.60;89.80
36856;DHT22;22788;51.434;6.786;2023-07-09T11:09:51;28.30;90.20
36856;DHT22;22788;51.434;6.786;2023-07-09T11:12:27;28.10;88.80
36856;DHT22;22788;51.434;6.786;2023-07-09T11:14:57;28.10;90.10
36856;DHT22;22788;51.434;6.786;2023-07-09T11:17:24;28.10;90.70
36856;DHT22;22788;51.434;6.786;2023-07-09T11:19:56;28.20;89.50
36856;DHT22;22788;51.434;6.786;2023-07-09T11:22:24;28.30;88.90
36856;DHT22;22788;51.434;6.786;2023-07-09T11:24:51;28.50;89.60
36856;DHT22;22788;51.434;6.786;2023-07-09T11:27:20;28.40;90.00
36856;DHT22;22788;51.434;6.786;2023-07-09T11:29:47;28.60;90.00
36856;DHT22;22788;51.434;6.786;2023-07-09T11:32:18;28.60;90.10
36856;DHT22;22788;51.434;6.786;2023-07-09T11:34:46;28.50;89.70
36856;DHT22;22788;51.434;6.786;2023-07-09T11:37:14;28.40;90.30
36856;DHT22;22788;51.434;6.786;2023-07-09T11:39:43;28.30;90.40
36856;DHT22;22788;51.434;6.786;2023-07-09T11:42:27;28.40;90.30
36856;DHT22;22788;51.434;6.786;2023-07-09T11:44:58;28.60;89.50
36856;DHT22;22788;51.434;6.786;2023-07-09T11:47:29;28.80;89.70
36856;DHT22;22788;51.434;6.786;2023-07-09T11:49:59;28.70;90.10
36856;DHT22;22788;51.434;6.786;2023-07-09T11:52:30;28.50;90.20
36856;DHT22;22788;51.434;6.786;2023-07-09T11:54:57;28.70;90.10
36856;DHT22;22788;51.434;6.786;2023-07-09T11:57:22;28.80;90.10
36856;DHT22;22788;51.434;6.786;2023-07-09T11:59:48;28.50;90.30
36856;DHT22;22788;51.434;6.786;2023-07-09T12:02:19;28.60;90.20
36856;DHT22;22788;51.434;6.786;2023-07-09T12:04:48;28.90;89.60
36856;DHT22;22788;51.434;6.786;2023-07-09T12:07:15;29.00;88.20
36856;DHT22;22788;51.434;6.786;2023-07-09T12:09:47;29.10;89.00
36856;DHT22;22788;51.434;6.786;2023-07-09T12:12:25;29.00;89.90
36856;DHT22;22788;51.434;6.786;2023-07-09T12:14:51;28.70;90.30
36856;DHT22;22788;51.434;6.786;2023-07-09T12:17:17;28.80;90.00
36856;DHT22;22788;51.434;6.786;2023-07-09T12:19:42;28.90;88.90
36856;DHT22;22788;51.434;6.786;2023-07-09T12:22:15;28.80;87.40
36856;DHT22;22788;51.434;6.786;2023-07-09T12:24:44;28.90;90.00
36856;DHT22;22788;51.434;6.786;2023-07-09T12:27:20;28.90;88.80
36856;DHT22;22788;51.434;6.786;2023-07-09T12:29:47;29.10;89.70
36856;DHT22;22788;51.434;6.786;2023-07-09T12:32:15;29.20;89.00
36856;DHT22;22788;51.434;6.786;2023-07-09T12:34:41;29.20;88.80
36856;DHT22;22788;51.434;6.786;2023-07-09T12:37:08;29.30;89.30
36856;DHT22;22788;51.434;6.786;2023-07-09T12:39:37;29.20;88.30
36856;DHT22;22788;51.434;6.786;2023-07-09T12:42:09;29.50;86.50
36856;DHT22;22788;51.434;6.786;2023-07-09T12:44:39;29.60;87.60
36856;DHT22;22788;51.434;6.786;2023-07-09T12:47:05;29.70;87.90
36856;DHT22;22788;51.434;6.786;2023-07-09T12:49:38;29.70;87.90
36856;DHT22;22788;51.434;6.786;2023-07-09T12:52:13;29.80;85.80
36856;DHT22;22788;51.434;6.786;2023-07-09T12:54:39;29.90;85.40
36856;DHT22;22788;51.434;6.786;2023-07-09T12:57:13;29.90;87.10
36856;DHT22;22788;51.434;6.786;2023-07-09T12:59:40;29.70;88.40
36856;DHT22;22788;51.434;6.786;2023-07-09T13:02:14;29.30;88.00
36856;DHT22;22788;51.434;6.786;2023-07-09T13:04:42;29.20;89.60
36856;DHT22;22788;51.434;6.786;2023-07-09T13:07:25;29.10;90.00
36856;DHT22;22788;51.434;6.786;2023-07-09T13:09:54;29.10;90.40
36856;DHT22;22788;51.434;6.786;2023-07-09T13:12:29;29.10;90.00
36856;DHT22;22788;51.434;6.786;2023-07-09T13:14:55;29.30;90.20
36856;DHT22;22788;51.434;6.786;2023-07-09T13:17:21;29.30;88.90
36856;DHT22;22788;51.434;6.786;2023-07-09T13:19:46;29.30;89.80
36856;DHT22;22788;51.434;6.786;2023-07-09T13:22:13;29.20;90.50
36856;DHT22;22788;51.434;6.786;2023-07-09T13:24:39;29.20;90.60
36856;DHT22;22788;51.434;6.786;2023-07-09T13:27:07;29.20;90.30
36856;DHT22;22788;51.434;6.786;2023-07-09T13:29:35;29.20;90.10
36856;DHT22;22788;51.434;6.786;2023-07-09T13:32:01;29.20;90.40
36856;DHT22;22788;51.434;6.786;2023-07-09T13:34:28;29.10;89.50
36856;DHT22;22788;51.434;6.786;2023-07-09T13:36:55;29.10;91.20
36856;DHT22;22788;51.434;6.786;2023-07-09T13:39:21;29.10;90.40
36856;DHT22;22788;51.434;6.786;2023-07-09T13:41:48;29.10;90.20
36856;DHT22;22788;51.434;6.786;2023-07-09T13:44:16;29.10;91.30
36856;DHT22;22788;51.434;6.786;2023-07-09T13:46:44;29.10;90.90
36856;DHT22;22788;51.434;6.786;2023-07-09T13:49:10;28.90;91.80
36856;DHT22;22788;51.434;6.786;2023-07-09T13:51:37;28.90;92.70
36856;DHT22;22788;51.434;6.786;2023-07-09T13:54:09;28.80;93.40
36856;DHT22;22788;51.434;6.786;2023-07-09T13:56:37;28.60;96.20
36856;DHT22;22788;51.434;6.786;2023-07-09T13:59:05;28.50;94.10
36856;DHT22;22788;51.434;6.786;2023-07-09T14:01:31;28.30;94.50
36856;DHT22;22788;51.434;6.786;2023-07-09T14:03:58;28.20;94.00
36856;DHT22;22788;51.434;6.786;2023-07-09T14:06:23;28.10;92.90
36856;DHT22;22788;51.434;6.786;2023-07-09T14:08:49;28.00;94.80
36856;DHT22;22788;51.434;6.786;2023-07-09T14:11:16;27.90;93.30
36856;DHT22;22788;51.434;6.786;2023-07-09T14:13:43;27.90;95.90
36856;DHT22;22788;51.434;6.786;2023-07-09T14:16:10;27.80;95.70
36856;DHT22;22788;51.434;6.786;2023-07-09T14:18:36;27.70;95.00
36856;DHT22;22788;51.434;6.786;2023-07-09T14:21:08;27.60;94.90
36856;DHT22;22788;51.434;6.786;2023-07-09T14:23:34;27.60;96.30
36856;DHT22;22788;51.434;6.786;2023-07-09T14:26:00;27.60;95.20
36856;DHT22;22788;51.434;6.786;2023-07-09T14:28:25;27.50;95.80
36856;DHT22;22788;51.434;6.786;2023-07-09T14:30:51;27.50;96.40
36856;DHT22;22788;51.434;6.786;2023-07-09T14:33:19;27.40;95.70
36856;DHT22;22788;51.434;6.786;2023-07-09T14:35:45;27.40;95.40
36856;DHT22;22788;51.434;6.786;2023-07-09T14:38:17;27.40;95.10
36856;DHT22;22788;51.434;6.786;2023-07-09T14:40:43;27.40;95.20
36856;DHT22;22788;51.434;6.786;2023-07-09T14:43:10;27.40;95.40
36856;DHT22;22788;51.434;6.786;2023-07-09T14:45:36;27.40;96.80
36856;DHT22;22788;51.434;6.786;2023-07-09T14:48:04;27.30;95.90
36856;DHT22;22788;51.434;6.786;2023-07-09T14:50:33;27.30;95.30
36856;DHT22;22788;51.434;6.786;2023-07-09T14:52:59;27.20;95.30
36856;DHT22;22788;51.434;6.786;2023-07-09T14:55:26;27.20;95.90
36856;DHT22;22788;51.434;6.786;2023-07-09T14:57:51;27.10;97.10
36856;DHT22;22788;51.434;6.786;2023-07-09T15:00:19;27.00;97.00
36856;DHT22;22788;51.434;6.786;2023-07-09T15:02:46;27.00;97.90
36856;DHT22;22788;51.434;6.786;2023-07-09T15:05:15;27.00;98.40
36856;DHT22;22788;51.434;6.786;2023-07-09T15:07:41;26.90;98.20
36856;DHT22;22788;51.434;6.786;2023-07-09T15:10:11;26.80;99.90
36856;DHT22;22788;51.434;6.786;2023-07-09T15:12:38;26.70;98.70
36856;DHT22;22788;51.434;6.786;2023-07-09T15:15:13;26.70;99.50
36856;DHT22;22788;51.434;6.786;2023-07-09T15:17:39;26.60;99.90
36856;DHT22;22788;51.434;6.786;2023-07-09T15:20:07;26.50;99.70
36856;DHT22;22788;51.434;6.786;2023-07-09T15:22:35;26.50;99.90
36856;DHT22;22788;51.434;6.786;2023-07-09T15:25:01;26.50;99.90
36856;DHT22;22788;51.434;6.786;2023-07-09T15:27:27;26.40;99.90
36856;DHT22;22788;51.434;6.786;2023-07-09T15:29:54;26.40;99.90
36856;DHT22;22788;51.434;6.786;2023-07-09T15:32:20;26.40;99.90